Time;durP1;ratioP1;P1;durP2;ratioP2;P2;SDS_P1;SDS_P2;PMS_P1;PMS_P2;Temp;Humidity;BMP_temperature;BMP_pressure;BME280_temperature;BME280_humidity;BME280_pressure;Samples;Min_cycle;Max_cycle;Signal;HPM_P1;HPM_P2
2021/03/04 00:00:17;;;;;;;124.38;76.85;;;128.50;2176.00;;;;;;5032843;28;20091;-83
2021/03/04 00:02:44;;;;;;;143.50;88.90;;;128.50;2176.00;;;;;;5030880;28;20029;-81
2021/03/04 00:05:11;;;;;;;185.38;103.00;;;128.50;2201.60;;;;;;5033058;28;20060;-82
2021/03/04 00:07:38;;;;;;;179.65;104.40;;;128.60;2176.00;;;;;;5036977;28;20466;-84
2021/03/04 00:10:10;;;;;;;163.82;94.88;;;128.30;2227.20;;;;;;5036196;28;20030;-89
2021/03/04 00:12:35;;;;;;;155.77;89.47;;;128.20;2201.60;;;;;;5034032;28;20087;-89
2021/03/04 00:15:03;;;;;;;150.95;85.60;;;103.20;2227.20;;;;;;5032993;28;20112;-88
2021/03/04 00:17:29;;;;;;;134.23;76.43;;;103.30;2227.20;;;;;;5033023;28;20034;-87
2021/03/04 00:19:55;;;;;;;177.02;97.43;;;128.10;2227.20;;;;;;5033018;28;20029;-85
2021/03/04 00:22:20;;;;;;;167.02;99.47;;;128.00;2227.20;;;;;;5032323;28;20026;-89
2021/03/04 00:24:46;;;;;;;167.77;91.40;;;128.20;2201.60;;;;;;5028926;28;20026;-83
2021/03/04 00:27:12;;;;;;;132.30;79.10;;;128.20;2201.60;;;;;;5018144;28;20021;-82
2021/03/04 00:29:38;;;;;;;137.32;78.95;;;128.40;2176.00;;;;;;5032170;28;20144;-81
2021/03/04 00:32:04;;;;;;;137.88;79.68;;;128.30;2176.00;;;;;;5038533;28;20390;-77
2021/03/04 00:34:30;;;;;;;115.68;67.88;;;128.20;2201.60;;;;;;5034957;28;20026;-84
2021/03/04 00:36:57;;;;;;;109.10;60.90;;;128.20;2201.60;;;;;;5033659;28;20041;-82
2021/03/04 00:39:23;;;;;;;99.53;57.05;;;128.10;2176.00;;;;;;5035196;28;20025;-81
2021/03/04 00:41:49;;;;;;;99.10;55.60;;;128.00;2227.20;;;;;;5035083;28;20030;-84
2021/03/04 00:44:17;;;;;;;100.65;55.33;;;128.10;2201.60;;;;;;5035485;28;20040;-82
2021/03/04 00:46:43;;;;;;;117.50;64.13;;;103.30;2176.00;;;;;;5036037;28;20052;-84
2021/03/04 00:49:08;;;;;;;104.05;56.33;;;103.30;2176.00;;;;;;5035002;28;20099;-82
2021/03/04 00:51:34;;;;;;;95.40;54.88;;;128.00;2176.00;;;;;;5033989;28;20025;-85
2021/03/04 00:54:01;;;;;;;105.78;59.78;;;103.20;2176.00;;;;;;5047132;28;20036;-81
2021/03/04 00:56:27;;;;;;;103.60;57.30;;;102.80;2227.20;;;;;;5052147;28;20068;-83
2021/03/04 00:58:52;;;;;;;109.60;58.50;;;102.60;2227.20;;;;;;5031786;28;20049;-85
2021/03/04 01:01:19;;;;;;;104.22;56.47;;;102.60;2227.20;;;;;;5031759;28;20025;-80
2021/03/04 01:03:44;;;;;;;120.30;61.22;;;102.70;2227.20;;;;;;5045884;28;20025;-85
2021/03/04 01:06:12;;;;;;;99.78;55.15;;;102.90;2227.20;;;;;;5055865;28;20029;-83
2021/03/04 01:08:38;;;;;;;73.93;44.63;;;103.00;2201.60;;;;;;5054728;28;20033;-79
2021/03/04 01:11:04;;;;;;;69.00;41.38;;;102.90;2201.60;;;;;;5041642;28;20018;-80
2021/03/04 01:13:29;;;;;;;72.50;42.88;;;103.00;2176.00;;;;;;5015679;28;20430;-83
2021/03/04 01:15:56;;;;;;;70.80;39.92;;;103.10;2176.00;;;;;;5021521;28;20041;-80
2021/03/04 01:18:22;;;;;;;62.15;37.30;;;103.00;2176.00;;;;;;5035674;28;20025;-87
2021/03/04 01:20:48;;;;;;;87.40;49.60;;;103.00;2176.00;;;;;;5032858;28;20029;-87
2021/03/04 01:23:14;;;;;;;110.75;59.53;;;102.90;2201.60;;;;;;5032976;28;20052;-83
2021/03/04 01:25:40;;;;;;;107.60;54.28;;;102.70;2227.20;;;;;;5034845;28;20414;-83
2021/03/04 01:28:06;;;;;;;84.65;49.78;;;102.80;2227.20;;;;;;5034121;28;20062;-84
2021/03/04 01:30:33;;;;;;;82.57;44.65;;;102.80;2227.20;;;;;;5035241;28;20028;-83
2021/03/04 01:32:59;;;;;;;92.78;52.20;;;102.60;2227.20;;;;;;5035242;28;20048;-87
2021/03/04 01:35:25;;;;;;;131.43;74.72;;;102.80;2227.20;;;;;;5035753;28;20538;-85
2021/03/04 01:37:54;;;;;;;125.00;70.40;;;102.50;2227.20;;;;;;5028989;28;20155;-85
2021/03/04 01:40:23;;;;;;;135.77;75.35;;;102.70;2227.20;;;;;;5033347;28;20025;-86
2021/03/04 01:42:50;;;;;;;113.18;63.10;;;102.80;2227.20;;;;;;5034048;28;20051;-85
2021/03/04 01:45:17;;;;;;;87.53;50.38;;;77.60;2227.20;;;;;;5033103;28;20038;-84
2021/03/04 01:47:47;;;;;;;78.90;47.05;;;102.50;2227.20;;;;;;5034850;28;20050;-89
2021/03/04 01:50:16;;;;;;;68.10;42.15;;;102.50;2227.20;;;;;;5034929;28;20021;-88
2021/03/04 01:52:42;;;;;;;67.90;37.88;;;77.40;2227.20;;;;;;5035050;28;20466;-89
2021/03/04 01:55:09;;;;;;;65.38;39.35;;;102.70;2227.20;;;;;;5034980;28;20061;-87
2021/03/04 01:57:36;;;;;;;72.78;41.50;;;102.70;2227.20;;;;;;5034756;28;20041;-87
2021/03/04 02:00:06;;;;;;;85.43;49.75;;;102.60;2201.60;;;;;;5034947;28;20032;-89
2021/03/04 02:02:32;;;;;;;114.72;62.17;;;102.50;2227.20;;;;;;5034833;28;20025;-87
2021/03/04 02:04:58;;;;;;;95.13;53.10;;;77.70;2227.20;;;;;;5034715;28;20026;-88
2021/03/04 02:08:01;;;;;;;99.03;52.03;;;102.40;2227.20;;;;;;5034542;28;20095;-89
2021/03/04 02:10:34;;;;;;;116.72;56.97;;;77.70;2227.20;;;;;;5035131;28;20029;-91
2021/03/04 02:13:02;;;;;;;;;;;77.70;2227.20;;;;;;5034996;28;20025;-90
2021/03/04 02:15:34;;;;;;;121.57;59.60;;;102.40;2227.20;;;;;;5034368;28;19913;-87
2021/03/04 02:18:06;;;;;;;158.20;72.37;;;77.50;2227.20;;;;;;5034616;28;20025;-87
2021/03/04 02:20:36;;;;;;;94.55;48.15;;;77.40;2227.20;;;;;;5034503;28;20032;-89
2021/03/04 02:23:30;;;;;;;90.70;48.63;;;77.30;2227.20;;;;;;5034198;28;20026;-90
2021/03/04 02:26:23;;;;;;;129.35;64.03;;;77.10;2227.20;;;;;;5034536;28;20033;-88
2021/03/04 02:28:51;;;;;;;95.80;49.50;;;77.40;2227.20;;;;;;5034422;28;20025;-90
2021/03/04 02:31:19;;;;;;;84.90;42.65;;;77.30;2227.20;;;;;;5034311;28;20021;-90
2021/03/04 02:33:47;;;;;;;92.78;48.95;;;77.10;2227.20;;;;;;5034275;28;20485;-92
2021/03/04 02:36:14;;;;;;;97.82;54.40;;;77.00;2227.20;;;;;;5031723;28;20030;-88
2021/03/04 02:38:47;;;;;;;125.30;61.65;;;52.10;2227.20;;;;;;5034063;28;20085;-86
2021/03/04 02:41:13;;;;;;;88.10;46.75;;;76.90;2227.20;;;;;;5033500;28;20052;-86
2021/03/04 02:43:41;;;;;;;86.68;47.35;;;77.00;2227.20;;;;;;5033970;28;20094;-89
2021/03/04 02:46:10;;;;;;;107.75;56.05;;;77.10;2227.20;;;;;;5034882;28;20033;-86
2021/03/04 02:48:37;;;;;;;73.78;41.75;;;77.10;2227.20;;;;;;5044228;28;20057;-84
2021/03/04 02:51:04;;;;;;;69.05;41.35;;;76.90;2227.20;;;;;;5045010;28;20049;-87
2021/03/04 02:53:44;;;;;;;65.38;38.33;;;77.20;2227.20;;;;;;5042763;28;20030;-86
2021/03/04 02:56:11;;;;;;;90.20;48.53;;;77.20;2227.20;;;;;;5043323;28;20068;-88
2021/03/04 02:58:38;;;;;;;81.50;43.10;;;77.00;2227.20;;;;;;5043949;28;20451;-87
2021/03/04 03:01:05;;;;;;;79.93;42.70;;;77.20;2227.20;;;;;;5042440;28;20080;-87
2021/03/04 03:03:32;;;;;;;75.05;41.17;;;77.10;2227.20;;;;;;5043164;28;20021;-88
2021/03/04 03:05:58;;;;;;;76.75;43.45;;;77.20;2227.20;;;;;;5044064;28;20059;-90
2021/03/04 03:08:25;;;;;;;65.07;37.67;;;77.00;2227.20;;;;;;5043899;28;20029;-86
2021/03/04 03:10:52;;;;;;;73.50;39.83;;;77.00;2227.20;;;;;;5045873;28;20049;-82
2021/03/04 03:13:20;;;;;;;59.08;33.60;;;76.90;2227.20;;;;;;5057132;28;20035;-86
2021/03/04 03:15:46;;;;;;;53.33;30.10;;;76.90;2227.20;;;;;;5058272;28;20053;-87
2021/03/04 03:18:12;;;;;;;57.50;32.83;;;52.10;2227.20;;;;;;5058146;28;20025;-80
2021/03/04 03:20:38;;;;;;;62.50;33.30;;;76.80;2227.20;;;;;;5054812;28;20028;-81
2021/03/04 03:23:04;;;;;;;57.78;32.15;;;76.90;2227.20;;;;;;5054299;28;20010;-86
2021/03/04 03:25:30;;;;;;;53.63;30.80;;;76.90;2227.20;;;;;;5058247;28;20029;-88
2021/03/04 03:27:56;;;;;;;58.10;32.70;;;76.80;2227.20;;;;;;5056713;28;20044;-87
2021/03/04 03:30:25;;;;;;;103.22;51.22;;;52.10;2227.20;;;;;;5057492;28;20033;-88
2021/03/04 03:32:57;;;;;;;117.03;60.58;;;52.10;2227.20;;;;;;5040558;28;20079;-91
2021/03/04 03:35:27;;;;;;;116.28;59.67;;;76.80;2227.20;;;;;;5034022;28;20086;-90
2021/03/04 03:37:58;;;;;;;77.22;43.55;;;52.10;2227.20;;;;;;5033864;28;20112;-88
2021/03/04 03:40:25;;;;;;;79.50;43.88;;;76.80;2227.20;;;;;;5033844;28;20025;-91
2021/03/04 03:42:53;;;;;;;83.75;42.53;;;76.80;2227.20;;;;;;5033472;28;20037;-88
2021/03/04 03:45:23;;;;;;;79.75;42.05;;;52.10;2227.20;;;;;;5033728;28;20036;-89
2021/03/04 03:47:49;;;;;;;94.40;43.58;;;76.80;2227.20;;;;;;5033462;28;20041;-88
2021/03/04 03:50:18;;;;;;;66.88;35.15;;;52.10;2227.20;;;;;;5033284;28;20025;-90
2021/03/04 03:52:45;;;;;;;61.38;33.75;;;52.10;2227.20;;;;;;5030386;28;20402;-91
2021/03/04 03:55:14;;;;;;;56.92;31.40;;;76.80;2227.20;;;;;;5033003;28;20348;-89
2021/03/04 03:57:42;;;;;;;53.38;30.27;;;102.50;2227.20;;;;;;5032950;28;20025;-90
2021/03/04 04:00:09;;;;;;;55.05;31.63;;;52.00;2227.20;;;;;;5033281;28;20083;-88
2021/03/04 04:02:36;;;;;;;67.95;34.42;;;51.60;2227.20;;;;;;5033275;28;20121;-89
2021/03/04 04:05:03;;;;;;;53.45;28.77;;;51.90;2227.20;;;;;;5033673;28;20060;-90
2021/03/04 04:07:30;;;;;;;51.88;29.83;;;51.40;2227.20;;;;;;5033955;28;20065;-91
2021/03/04 04:09:57;;;;;;;61.10;32.70;;;51.80;2227.20;;;;;;5037393;28;20033;-90
2021/03/04 04:12:23;;;;;;;59.40;33.00;;;51.50;2227.20;;;;;;5037468;28;20025;-90
2021/03/04 04:14:51;;;;;;;61.88;39.35;;;51.60;2227.20;;;;;;5037577;28;20018;-91
2021/03/04 04:17:21;;;;;;;71.78;40.22;;;51.60;2227.20;;;;;;5037063;28;20041;-91
2021/03/04 04:19:49;;;;;;;57.83;34.67;;;51.70;2227.20;;;;;;5036185;28;20022;-90
2021/03/04 04:22:17;;;;;;;55.10;31.92;;;51.60;2227.20;;;;;;5034698;28;20460;-92
2021/03/04 04:24:43;;;;;;;54.30;30.65;;;51.60;2227.20;;;;;;5017211;28;20117;-91
2021/03/04 04:27:11;;;;;;;58.97;31.45;;;51.80;2227.20;;;;;;5016793;28;20026;-91
2021/03/04 04:29:37;;;;;;;50.60;31.63;;;26.50;2201.60;;;;;;5017017;28;20101;-89
2021/03/04 04:32:03;;;;;;;65.82;32.90;;;51.60;2227.20;;;;;;5017220;28;20033;-90
2021/03/04 04:34:29;;;;;;;61.53;32.28;;;26.50;2201.60;;;;;;5017078;28;20029;-91
2021/03/04 04:36:55;;;;;;;52.40;30.77;;;51.40;2227.20;;;;;;5025764;28;20099;-92
2021/03/04 04:39:23;;;;;;;53.28;28.38;;;51.40;2227.20;;;;;;5035426;28;20076;-90
2021/03/04 04:41:49;;;;;;;48.55;26.60;;;51.20;2227.20;;;;;;5036100;28;20116;-90
2021/03/04 04:44:15;;;;;;;48.17;26.10;;;26.50;2201.60;;;;;;5036101;28;20057;-89
2021/03/04 04:46:41;;;;;;;47.35;28.27;;;51.30;2227.20;;;;;;5036283;28;20056;-91
2021/03/04 04:49:07;;;;;;;95.70;49.85;;;51.30;2227.20;;;;;;5036224;28;20049;-89
2021/03/04 04:54:55;;;;;;;89.88;49.20;;;51.40;2227.20;;;;;;5038389;28;20386;-89
2021/03/04 04:57:22;;;;;;;69.40;37.25;;;51.20;2227.20;;;;;;5035348;28;20029;-92
2021/03/04 04:59:49;;;;;;;68.15;35.95;;;26.50;2201.60;;;;;;5035780;28;20029;-87
2021/03/04 05:18:32;;;;;;;57.33;30.67;;;51.40;2227.20;;;;;;5026308;28;20057;-80
2021/03/04 05:25:44;;;;;;;67.78;33.47;;;26.10;2201.60;;;;;;4959030;29;20104;-79
2021/03/04 05:29:10;;;;;;;70.25;33.97;;;26.10;2201.60;;;;;;4923534;29;20024;-81
2021/03/04 05:36:37;;;;;;;108.80;55.53;;;26.20;2201.60;;;;;;4972435;28;20038;-80
2021/03/04 05:53:55;;;;;;;104.78;57.90;;;26.10;2201.60;;;;;;5073798;22;20048;-81
2021/03/04 06:01:08;;;;;;;96.15;54.00;;;25.90;2201.60;;;;;;5118943;28;20049;-80
2021/03/04 06:14:56;;;;;;;114.07;65.30;;;26.20;2201.60;;;;;;5057321;28;20020;-80
2021/03/04 06:18:23;;;;;;;99.18;56.70;;;26.00;2201.60;;;;;;4997546;28;20038;-79
2021/03/04 06:22:35;;;;;;;104.32;60.28;;;26.20;2201.60;;;;;;4921539;29;20018;-81
2021/03/04 07:46:38;;;;;;;64.75;40.42;;;103.00;2227.20;;;;;;6104437;22;20029;-80
2021/03/04 07:49:31;;;;;;;72.05;44.58;;;103.20;2227.20;;;;;;5011805;28;20042;-81
2021/03/04 07:52:26;;;;;;;54.72;35.25;;;128.00;2252.80;;;;;;5028759;28;20030;-78
2021/03/04 07:54:55;;;;;;;62.00;37.95;;;128.20;2252.80;;;;;;5012252;28;20061;-77
2021/03/04 07:57:23;;;;;;;59.28;36.38;;;128.40;2252.80;;;;;;5025418;28;20091;-77
2021/03/04 08:00:03;;;;;;;57.30;36.13;;;128.50;2252.80;;;;;;5023872;28;20064;-80
2021/03/04 08:02:37;;;;;;;59.75;39.10;;;128.60;2252.80;;;;;;5024004;28;20026;-75
2021/03/04 08:05:18;;;;;;;57.92;37.92;;;128.80;2252.80;;;;;;5025823;28;20133;-77
2021/03/04 08:07:48;;;;;;;64.13;43.13;;;128.90;2252.80;;;;;;5025234;28;20048;-80
2021/03/04 08:10:22;;;;;;;59.75;36.92;;;128.90;2252.80;;;;;;5025450;28;20038;-77
2021/03/04 08:12:58;;;;;;;60.78;37.38;;;153.70;2252.80;;;;;;5024666;28;20022;-77
2021/03/04 08:15:33;;;;;;;52.08;34.08;;;153.80;2227.20;;;;;;5041931;28;20117;-78
2021/03/04 08:18:04;;;;;;;55.60;32.60;;;154.00;2201.60;;;;;;5011603;28;20030;-78
2021/03/04 08:20:32;;;;;;;69.10;40.63;;;154.10;2201.60;;;;;;5031535;28;20030;-78
2021/03/04 08:22:58;;;;;;;67.80;38.92;;;154.20;2176.00;;;;;;5030637;28;20057;-79
2021/03/04 08:25:29;;;;;;;72.68;41.25;;;154.40;2150.40;;;;;;5030711;28;20022;-78
2021/03/04 08:27:58;;;;;;;83.07;44.70;;;154.50;2124.80;;;;;;5030004;28;20030;-78
2021/03/04 08:30:40;;;;;;;71.03;42.20;;;179.40;2099.20;;;;;;5027899;28;20026;-78
2021/03/04 08:33:14;;;;;;;74.80;44.47;;;179.40;2048.00;;;;;;5028311;28;20037;-78
2021/03/04 08:35:45;;;;;;;68.53;41.28;;;179.40;2022.40;;;;;;5008305;28;20022;-77
2021/03/04 08:38:20;;;;;;;58.78;35.05;;;179.70;1996.80;;;;;;5027431;28;20026;-78
2021/03/04 08:40:51;;;;;;;52.28;31.98;;;179.80;1996.80;;;;;;5025255;28;20029;-79
2021/03/04 08:43:22;;;;;;;53.45;33.83;;;180.00;1945.60;;;;;;5004495;28;20473;-81
2021/03/04 08:46:08;;;;;;;49.15;32.28;;;204.80;1945.60;;;;;;5010266;28;20089;-80
2021/03/04 08:48:46;;;;;;;51.75;34.72;;;204.90;1868.80;;;;;;5003052;28;20517;-80
2021/03/04 08:51:16;;;;;;;68.80;38.22;;;205.00;1868.80;;;;;;4992460;28;20180;-79
2021/03/04 08:53:47;;;;;;;66.20;38.20;;;205.20;1843.20;;;;;;5006089;28;20032;-82
2021/03/04 08:56:14;;;;;;;51.08;31.83;;;205.20;1868.80;;;;;;5023987;28;20080;-79
2021/03/04 08:58:45;;;;;;;53.78;34.10;;;205.40;1817.60;;;;;;5022944;28;20026;-84
2021/03/04 09:01:15;;;;;;;53.75;34.90;;;205.50;1792.00;;;;;;5006427;28;20142;-86
2021/03/04 09:03:44;;;;;;;49.88;32.63;;;205.70;1766.40;;;;;;5021625;28;20060;-85
2021/03/04 09:06:13;;;;;;;61.20;42.45;;;230.40;1715.20;;;;;;5019603;28;20121;-84
2021/03/04 09:08:42;;;;;;;45.28;29.55;;;230.50;1740.80;;;;;;5003257;28;20026;-85
2021/03/04 09:11:10;;;;;;;35.58;22.17;;;230.60;1689.60;;;;;;5021836;28;20095;-83
2021/03/04 09:13:37;;;;;;;30.77;19.35;;;230.70;1587.20;;;;;;5033265;28;20038;-86
2021/03/04 09:16:07;;;;;;;32.88;21.08;;;230.80;1561.60;;;;;;5040044;28;20026;-83
2021/03/04 09:18:44;;;;;;;42.20;25.50;;;231.00;1587.20;;;;;;5038859;28;20018;-86
2021/03/04 09:21:14;;;;;;;59.10;33.97;;;231.20;1587.20;;;;;;5023844;28;20022;-87
2021/03/04 09:23:40;;;;;;;51.55;30.80;;;256.00;1536.00;;;;;;5039840;28;20073;-87
2021/03/04 09:26:08;;;;;;;51.58;28.15;;;256.20;1561.60;;;;;;5038785;28;20057;-84
2021/03/04 09:28:37;;;;;;;48.55;32.85;;;256.10;1587.20;;;;;;5039773;28;20025;-84
2021/03/04 09:31:15;;;;;;;41.60;25.75;;;256.20;1561.60;;;;;;5037998;28;20037;-88
2021/03/04 09:33:43;;;;;;;40.28;27.63;;;256.30;1587.20;;;;;;5037717;28;20045;-87
2021/03/04 09:36:09;;;;;;;49.83;33.42;;;256.40;1561.60;;;;;;5036286;28;20030;-85
2021/03/04 09:38:37;;;;;;;50.42;31.13;;;256.50;1561.60;;;;;;5022615;28;20041;-85
2021/03/04 09:41:15;;;;;;;44.22;28.75;;;256.70;1536.00;;;;;;5036974;28;20037;-83
2021/03/04 09:43:45;;;;;;;39.97;24.48;;;256.90;1536.00;;;;;;5037625;28;20014;-87
2021/03/04 09:46:12;;;;;;;33.72;22.23;;;256.90;1510.40;;;;;;5039573;28;20053;-85
2021/03/04 09:48:39;;;;;;;32.40;21.30;;;281.70;1510.40;;;;;;5017207;28;20057;-89
2021/03/04 09:51:06;;;;;;;29.17;18.10;;;281.80;1510.40;;;;;;5037581;28;20479;-84
2021/03/04 09:53:43;;;;;;;30.08;18.25;;;282.00;1510.40;;;;;;5027303;28;20058;-87
2021/03/04 09:56:10;;;;;;;27.90;17.90;;;282.00;1484.80;;;;;;5002520;28;20151;-87
2021/03/04 09:58:43;;;;;;;30.70;16.90;;;282.30;1433.60;;;;;;5007379;28;20014;-85
2021/03/04 10:01:08;;;;;;;29.67;18.05;;;307.20;1433.60;;;;;;5011054;28;20045;-90
2021/03/04 10:03:40;;;;;;;32.08;19.58;;;307.30;1433.60;;;;;;5003834;28;20035;-90
2021/03/04 10:06:18;;;;;;;28.52;19.08;;;307.40;1433.60;;;;;;5004463;28;20030;-87
2021/03/04 10:08:43;;;;;;;29.23;20.00;;;307.60;1408.00;;;;;;5017159;28;20018;-88
2021/03/04 10:11:21;;;;;;;31.95;18.10;;;307.70;1382.40;;;;;;5018988;28;20024;-89
2021/03/04 10:13:47;;;;;;;35.75;22.08;;;307.80;1356.80;;;;;;5011200;28;20014;-87
2021/03/04 10:16:13;;;;;;;25.77;17.08;;;307.90;1356.80;;;;;;5008276;28;20038;-87
2021/03/04 10:18:44;;;;;;;32.17;21.20;;;307.80;1356.80;;;;;;5000191;28;20022;-83
2021/03/04 10:21:10;;;;;;;31.13;19.33;;;308.10;1331.20;;;;;;5000913;28;20022;-86
2021/03/04 10:23:36;;;;;;;24.38;14.55;;;332.90;1382.40;;;;;;5002222;28;20038;-85
2021/03/04 10:26:02;;;;;;;25.60;16.00;;;332.90;1356.80;;;;;;5013857;28;20034;-83
2021/03/04 10:28:29;;;;;;;22.50;14.68;;;333.20;1356.80;;;;;;4998613;28;20007;-85
2021/03/04 10:30:55;;;;;;;25.55;16.50;;;333.20;1356.80;;;;;;5026434;28;20034;-86
2021/03/04 10:33:21;;;;;;;28.10;17.10;;;333.20;1356.80;;;;;;4988614;28;20419;-87
2021/03/04 10:35:46;;;;;;;22.70;15.70;;;333.30;1331.20;;;;;;4986065;28;20057;-84
2021/03/04 10:38:12;;;;;;;21.75;14.80;;;333.40;1305.60;;;;;;4996994;28;20041;-84
2021/03/04 10:40:38;;;;;;;26.90;14.48;;;333.50;1331.20;;;;;;5015359;28;20030;-85
2021/03/04 10:43:04;;;;;;;24.05;15.50;;;333.70;1254.40;;;;;;4996696;28;20053;-85
2021/03/04 10:45:30;;;;;;;27.00;16.02;;;358.60;1203.20;;;;;;5012956;28;20034;-85
2021/03/04 10:47:55;;;;;;;23.83;14.38;;;358.70;1203.20;;;;;;4995301;28;20034;-83
2021/03/04 10:50:23;;;;;;;24.92;14.48;;;358.90;1152.00;;;;;;4995613;28;20094;-84
2021/03/04 10:52:49;;;;;;;21.02;13.02;;;359.00;1152.00;;;;;;4997478;28;20494;-83
2021/03/04 10:55:16;;;;;;;23.38;13.23;;;359.10;1126.40;;;;;;4994466;28;20023;-84
2021/03/04 10:57:43;;;;;;;24.23;15.23;;;384.00;1100.80;;;;;;4995064;28;20041;-82
2021/03/04 11:00:13;;;;;;;25.60;17.65;;;359.20;1100.80;;;;;;4996033;28;20032;-84
2021/03/04 11:02:38;;;;;;;41.60;24.23;;;384.10;1100.80;;;;;;5010146;28;20121;-83
2021/03/04 11:05:06;;;;;;;26.08;16.02;;;384.30;1100.80;;;;;;4995871;28;20030;-82
2021/03/04 11:07:33;;;;;;;21.38;13.77;;;384.40;1100.80;;;;;;4996107;28;20053;-83
2021/03/04 11:09:58;;;;;;;15.43;11.05;;;384.40;1100.80;;;;;;5025198;28;20029;-85
2021/03/04 11:12:24;;;;;;;18.67;12.15;;;384.40;1126.40;;;;;;5022139;28;20022;-83
2021/03/04 11:14:50;;;;;;;20.70;13.55;;;384.40;1049.60;;;;;;5018022;28;20022;-83
2021/03/04 11:17:16;;;;;;;19.95;11.98;;;384.70;1100.80;;;;;;5014451;28;20049;-84
2021/03/04 11:19:42;;;;;;;22.98;11.32;;;409.80;1100.80;;;;;;4999524;28;20033;-84
2021/03/04 11:22:09;;;;;;;20.92;12.48;;;409.70;1075.20;;;;;;5007919;28;20015;-85
2021/03/04 11:24:35;;;;;;;22.45;13.52;;;410.10;1075.20;;;;;;4988231;28;20022;-84
2021/03/04 11:27:02;;;;;;;25.60;15.18;;;410.30;1049.60;;;;;;5006953;28;20030;-87
2021/03/04 11:29:28;;;;;;;27.50;14.23;;;435.20;1024.00;;;;;;4987057;28;20038;-83
2021/03/04 11:31:54;;;;;;;40.88;28.90;;;435.30;1024.00;;;;;;5016520;28;20040;-84
2021/03/04 11:34:20;;;;;;;48.60;32.60;;;435.30;1024.00;;;;;;4993719;28;20486;-83
2021/03/04 11:36:46;;;;;;;40.15;22.17;;;435.70;1024.00;;;;;;5011080;28;20101;-86
2021/03/04 11:39:11;;;;;;;28.73;15.68;;;435.90;998.40;;;;;;5003437;28;20060;-80
2021/03/04 11:41:37;;;;;;;27.15;17.70;;;436.10;972.80;;;;;;4985507;28;20060;-85
2021/03/04 11:44:03;;;;;;;21.60;12.18;;;461.00;998.40;;;;;;4995653;28;20130;-85
2021/03/04 11:46:29;;;;;;;19.83;11.68;;;461.20;947.20;;;;;;4996586;28;20042;-87
2021/03/04 11:48:55;;;;;;;26.50;18.27;;;461.40;947.20;;;;;;5003620;28;20410;-85
2021/03/04 11:51:22;;;;;;;25.42;17.15;;;486.40;947.20;;;;;;5007202;28;20463;-83
2021/03/04 11:53:48;;;;;;;19.60;12.88;;;486.60;947.20;;;;;;4993832;28;20030;-83
2021/03/04 11:56:14;;;;;;;18.42;12.20;;;486.80;921.60;;;;;;4995827;28;20030;-83
2021/03/04 11:58:40;;;;;;;22.08;13.02;;;487.10;896.00;;;;;;4994220;28;20129;-84
2021/03/04 12:01:06;;;;;;;23.05;15.40;;;487.30;896.00;;;;;;4994628;28;20176;-84
2021/03/04 12:03:31;;;;;;;17.27;12.30;;;512.00;870.40;;;;;;5006637;28;20030;-84
2021/03/04 12:05:57;;;;;;;21.35;12.70;;;512.20;844.80;;;;;;4986248;28;20099;-82
2021/03/04 12:08:23;;;;;;;18.83;12.60;;;512.40;844.80;;;;;;4994064;28;20032;-81
2021/03/04 12:10:49;;;;;;;21.58;13.95;;;512.70;870.40;;;;;;5013989;28;20022;-82
2021/03/04 12:13:15;;;;;;;17.52;12.05;;;512.90;844.80;;;;;;5013812;28;20022;-85
2021/03/04 12:15:41;;;;;;;36.00;18.75;;;512.90;844.80;;;;;;5014599;28;20463;-83
2021/03/04 12:18:10;;;;;;;21.35;13.40;;;537.70;870.40;;;;;;5013545;28;20065;-84
2021/03/04 12:20:37;;;;;;;21.25;14.07;;;537.80;844.80;;;;;;5014678;28;20078;-83
2021/03/04 12:23:04;;;;;;;23.88;14.40;;;538.00;870.40;;;;;;5010655;28;20034;-84
2021/03/04 12:25:30;;;;;;;19.73;13.10;;;538.10;844.80;;;;;;4992627;28;20026;-83
2021/03/04 12:27:56;;;;;;;23.60;13.93;;;538.10;819.20;;;;;;4995300;28;20536;-83
2021/03/04 12:30:22;;;;;;;22.42;14.85;;;538.10;844.80;;;;;;4996973;28;20022;-83
2021/03/04 12:32:48;;;;;;;21.73;14.70;;;538.50;870.40;;;;;;4997842;28;20033;-83
2021/03/04 12:35:15;;;;;;;20.45;13.40;;;563.20;870.40;;;;;;4981771;28;20031;-82
2021/03/04 12:37:44;;;;;;;22.83;15.45;;;538.50;819.20;;;;;;4997642;28;20030;-85
2021/03/04 12:40:10;;;;;;;19.30;13.20;;;563.20;870.40;;;;;;4997328;28;20026;-84
2021/03/04 12:42:36;;;;;;;25.17;15.68;;;563.50;844.80;;;;;;4997392;28;20030;-85
2021/03/04 12:45:04;;;;;;;20.42;14.63;;;563.50;844.80;;;;;;4997775;28;20032;-85
2021/03/04 12:47:29;;;;;;;19.17;13.32;;;563.60;844.80;;;;;;4996977;28;20547;-83
2021/03/04 12:49:55;;;;;;;23.77;16.63;;;563.60;844.80;;;;;;4996707;28;20038;-83
2021/03/04 12:52:21;;;;;;;23.17;16.13;;;563.60;819.20;;;;;;4996840;28;20080;-79
2021/03/04 12:54:47;;;;;;;20.27;14.80;;;563.80;819.20;;;;;;4996815;28;20030;-81
2021/03/04 12:57:13;;;;;;;21.70;14.23;;;563.90;844.80;;;;;;4980181;28;20034;-80
2021/03/04 12:59:39;;;;;;;18.58;12.40;;;564.00;819.20;;;;;;4997813;28;20040;-84
2021/03/04 13:02:05;;;;;;;20.00;13.85;;;564.00;793.60;;;;;;4998369;28;20442;-84
2021/03/04 13:04:31;;;;;;;19.27;13.45;;;564.00;819.20;;;;;;5016427;28;20076;-82
2021/03/04 13:06:56;;;;;;;19.05;13.63;;;564.10;793.60;;;;;;5016911;28;20368;-81
2021/03/04 13:09:23;;;;;;;18.02;13.25;;;564.10;819.20;;;;;;5016908;28;20482;-82
2021/03/04 13:11:49;;;;;;;20.70;12.95;;;564.10;793.60;;;;;;5015607;28;20514;-81
2021/03/04 13:14:15;;;;;;;23.80;14.57;;;588.80;819.20;;;;;;5016852;28;20101;-83
2021/03/04 13:16:41;;;;;;;25.27;16.38;;;588.80;819.20;;;;;;5016722;28;20033;-82
2021/03/04 13:19:06;;;;;;;23.10;14.52;;;589.00;793.60;;;;;;5032035;28;20030;-82
2021/03/04 13:21:32;;;;;;;18.48;12.23;;;588.90;768.00;;;;;;5015525;28;20022;-81
2021/03/04 13:23:59;;;;;;;22.10;15.15;;;588.90;768.00;;;;;;5016819;28;20026;-82
2021/03/04 13:26:25;;;;;;;75.63;46.85;;;588.80;768.00;;;;;;5016485;28;20038;-83
2021/03/04 13:28:51;;;;;;;44.45;28.35;;;589.00;768.00;;;;;;5016234;28;20036;-82
2021/03/04 13:31:17;;;;;;;34.15;22.00;;;589.10;793.60;;;;;;5031875;28;20128;-82
2021/03/04 13:33:42;;;;;;;22.98;15.35;;;589.10;793.60;;;;;;5016324;28;20036;-82
2021/03/04 13:36:08;;;;;;;17.90;12.43;;;589.10;768.00;;;;;;5015383;28;20034;-83
2021/03/04 13:38:36;;;;;;;20.15;13.65;;;589.00;768.00;;;;;;5017912;28;20480;-84
2021/03/04 13:41:01;;;;;;;28.75;18.40;;;589.10;768.00;;;;;;5015300;28;20091;-82
2021/03/04 13:43:27;;;;;;;22.50;14.68;;;589.10;793.60;;;;;;5013968;28;20460;-81
2021/03/04 13:45:54;;;;;;;23.92;15.30;;;589.10;793.60;;;;;;5014932;28;20057;-83
2021/03/04 13:48:20;;;;;;;28.27;17.55;;;589.10;793.60;;;;;;5014926;28;20392;-84
2021/03/04 13:50:46;;;;;;;23.20;13.60;;;589.00;768.00;;;;;;5016764;28;20041;-81
2021/03/04 13:53:12;;;;;;;17.05;12.82;;;589.00;768.00;;;;;;4999507;28;20037;-82
2021/03/04 13:55:37;;;;;;;23.38;16.75;;;589.10;768.00;;;;;;4995894;28;20030;-81
2021/03/04 13:58:03;;;;;;;29.67;17.95;;;589.10;768.00;;;;;;5015507;28;20026;-84
2021/03/04 14:00:29;;;;;;;47.85;40.05;;;589.20;819.20;;;;;;4997900;28;20026;-83
2021/03/04 14:02:55;;;;;;;26.25;18.40;;;589.00;768.00;;;;;;5014450;28;20026;-82
2021/03/04 14:05:21;;;;;;;35.30;23.27;;;589.10;793.60;;;;;;5014670;28;20169;-82
2021/03/04 14:07:47;;;;;;;21.85;16.55;;;589.00;793.60;;;;;;5014286;28;20037;-83
2021/03/04 14:10:14;;;;;;;22.50;14.57;;;588.90;793.60;;;;;;5014588;28;20026;-83
2021/03/04 14:12:40;;;;;;;28.52;16.10;;;588.80;819.20;;;;;;5014398;28;20030;-82
2021/03/04 14:15:08;;;;;;;26.52;18.10;;;564.10;819.20;;;;;;5013964;28;20030;-82
2021/03/04 14:17:33;;;;;;;24.90;18.02;;;563.90;793.60;;;;;;5015713;28;20116;-82
2021/03/04 14:20:00;;;;;;;24.52;16.30;;;563.70;793.60;;;;;;5014992;28;20482;-81
2021/03/04 14:22:25;;;;;;;26.23;14.93;;;563.50;793.60;;;;;;4997490;28;20430;-85
2021/03/04 14:24:51;;;;;;;20.88;15.15;;;563.40;819.20;;;;;;5014916;28;20080;-81
2021/03/04 14:27:17;;;;;;;26.17;18.50;;;563.30;793.60;;;;;;5015773;28;20467;-83
2021/03/04 14:29:43;;;;;;;31.20;21.05;;;538.50;819.20;;;;;;5014089;28;20084;-86
2021/03/04 14:32:09;;;;;;;42.85;29.15;;;538.30;844.80;;;;;;5014118;28;20112;-82